sensor_id;sensor_type;location;lat;lon;timestamp;P1;durP1;ratioP1;P2;durP2;ratioP2
4122;SDS011;2075;51.062;6.920;2023-11-21T00:01:26;21.87;;;10.97;;
4122;SDS011;2075;51.062;6.920;2023-11-21T00:04:11;16.40;;;10.10;;
4122;SDS011;2075;51.062;6.920;2023-11-21T00:06:57;26.53;;;10.00;;
4122;SDS011;2075;51.062;6.920;2023-11-21T00:09:44;19.10;;;10.77;;
4122;SDS011;2075;51.062;6.920;2023-11-21T00:12:30;18.93;;;10.00;;
4122;SDS011;2075;51.062;6.920;2023-11-21T00:15:17;26.43;;;11.80;;
4122;SDS011;2075;51.062;6.920;2023-11-21T00:18:03;25.80;;;10.33;;
4122;SDS011;2075;51.062;6.920;2023-11-21T00:20:49;17.07;;;10.70;;
4122;SDS011;2075;51.062;6.920;2023-11-21T00:23:34;15.53;;;10.30;;
4122;SDS011;2075;51.062;6.920;2023-11-21T00:26:22;22.57;;;10.90;;
4122;SDS011;2075;51.062;6.920;2023-11-21T00:29:17;16.23;;;10.40;;
4122;SDS011;2075;51.062;6.920;2023-11-21T00:32:04;22.73;;;9.70;;
4122;SDS011;2075;51.062;6.920;2023-11-21T00:34:50;22.00;;;10.10;;
4122;SDS011;2075;51.062;6.920;2023-11-21T00:37:36;21.07;;;11.30;;
4122;SDS011;2075;51.062;6.920;2023-11-21T00:40:24;22.80;;;10.97;;
4122;SDS011;2075;51.062;6.920;2023-11-21T00:43:11;22.53;;;10.73;;
4122;SDS011;2075;51.062;6.920;2023-11-21T00:45:57;20.33;;;11.17;;
4122;SDS011;2075;51.062;6.920;2023-11-21T00:48:43;21.03;;;10.97;;
4122;SDS011;2075;51.062;6.920;2023-11-21T00:51:29;25.50;;;11.20;;
4122;SDS011;2075;51.062;6.920;2023-11-21T00:54:15;22.97;;;11.27;;
4122;SDS011;2075;51.062;6.920;2023-11-21T00:57:02;21.53;;;11.80;;
4122;SDS011;2075;51.062;6.920;2023-11-21T00:59:49;23.97;;;11.27;;
4122;SDS011;2075;51.062;6.920;2023-11-21T01:02:34;23.93;;;11.80;;
4122;SDS011;2075;51.062;6.920;2023-11-21T01:05:20;34.50;;;12.57;;
4122;SDS011;2075;51.062;6.920;2023-11-21T01:08:06;20.33;;;11.57;;
4122;SDS011;2075;51.062;6.920;2023-11-21T01:10:51;21.57;;;11.90;;
4122;SDS011;2075;51.062;6.920;2023-11-21T01:13:37;25.13;;;13.20;;
4122;SDS011;2075;51.062;6.920;2023-11-21T01:16:25;27.23;;;12.57;;
4122;SDS011;2075;51.062;6.920;2023-11-21T01:19:11;25.83;;;12.10;;
4122;SDS011;2075;51.062;6.920;2023-11-21T01:21:57;22.20;;;11.50;;
4122;SDS011;2075;51.062;6.920;2023-11-21T01:24:43;24.00;;;11.83;;
4122;SDS011;2075;51.062;6.920;2023-11-21T01:27:29;19.67;;;12.20;;
4122;SDS011;2075;51.062;6.920;2023-11-21T01:30:15;16.93;;;11.30;;
4122;SDS011;2075;51.062;6.920;2023-11-21T01:33:02;26.57;;;11.63;;
4122;SDS011;2075;51.062;6.920;2023-11-21T01:35:48;22.50;;;11.80;;
4122;SDS011;2075;51.062;6.920;2023-11-21T01:38:34;21.00;;;11.77;;
4122;SDS011;2075;51.062;6.920;2023-11-21T01:41:19;17.70;;;11.20;;
4122;SDS011;2075;51.062;6.920;2023-11-21T01:44:05;18.17;;;11.13;;
4122;SDS011;2075;51.062;6.920;2023-11-21T01:46:53;26.90;;;11.77;;
4122;SDS011;2075;51.062;6.920;2023-11-21T01:49:43;20.77;;;12.43;;
4122;SDS011;2075;51.062;6.920;2023-11-21T01:52:30;19.63;;;11.90;;
4122;SDS011;2075;51.062;6.920;2023-11-21T01:55:17;14.90;;;10.57;;
4122;SDS011;2075;51.062;6.920;2023-11-21T01:58:11;22.50;;;11.23;;
4122;SDS011;2075;51.062;6.920;2023-11-21T02:00:57;17.63;;;10.67;;
4122;SDS011;2075;51.062;6.920;2023-11-21T02:03:43;26.03;;;11.33;;
4122;SDS011;2075;51.062;6.920;2023-11-21T02:06:30;26.63;;;11.23;;
4122;SDS011;2075;51.062;6.920;2023-11-21T02:09:16;25.47;;;11.00;;
4122;SDS011;2075;51.062;6.920;2023-11-21T02:12:02;27.80;;;11.43;;
4122;SDS011;2075;51.062;6.920;2023-11-21T02:14:49;21.00;;;10.20;;
4122;SDS011;2075;51.062;6.920;2023-11-21T02:17:35;21.07;;;11.30;;
4122;SDS011;2075;51.062;6.920;2023-11-21T02:20:21;22.23;;;12.30;;
4122;SDS011;2075;51.062;6.920;2023-11-21T02:23:10;17.00;;;10.83;;
4122;SDS011;2075;51.062;6.920;2023-11-21T02:25:57;26.73;;;11.40;;
4122;SDS011;2075;51.062;6.920;2023-11-21T02:28:42;21.03;;;11.30;;
4122;SDS011;2075;51.062;6.920;2023-11-21T02:31:28;18.03;;;10.63;;
4122;SDS011;2075;51.062;6.920;2023-11-21T02:34:14;23.57;;;12.90;;
4122;SDS011;2075;51.062;6.920;2023-11-21T02:37:00;22.07;;;11.70;;
4122;SDS011;2075;51.062;6.920;2023-11-21T02:39:46;23.00;;;11.40;;
4122;SDS011;2075;51.062;6.920;2023-11-21T02:42:32;23.10;;;11.20;;
4122;SDS011;2075;51.062;6.920;2023-11-21T02:45:18;23.03;;;11.20;;
4122;SDS011;2075;51.062;6.920;2023-11-21T02:48:05;21.70;;;10.40;;
4122;SDS011;2075;51.062;6.920;2023-11-21T02:50:51;19.30;;;10.17;;
4122;SDS011;2075;51.062;6.920;2023-11-21T02:53:36;16.97;;;10.40;;
4122;SDS011;2075;51.062;6.920;2023-11-21T02:56:24;20.20;;;11.70;;
4122;SDS011;2075;51.062;6.920;2023-11-21T02:59:11;25.30;;;11.47;;
4122;SDS011;2075;51.062;6.920;2023-11-21T03:01:56;18.27;;;11.47;;
4122;SDS011;2075;51.062;6.920;2023-11-21T03:04:42;16.03;;;9.97;;
4122;SDS011;2075;51.062;6.920;2023-11-21T03:07:27;12.97;;;9.77;;
4122;SDS011;2075;51.062;6.920;2023-11-21T03:10:13;14.37;;;10.67;;
4122;SDS011;2075;51.062;6.920;2023-11-21T03:13:00;20.63;;;11.50;;
4122;SDS011;2075;51.062;6.920;2023-11-21T03:15:45;23.67;;;12.67;;
4122;SDS011;2075;51.062;6.920;2023-11-21T03:18:33;26.57;;;13.47;;
4122;SDS011;2075;51.062;6.920;2023-11-21T03:21:18;21.40;;;11.97;;
4122;SDS011;2075;51.062;6.920;2023-11-21T03:24:04;19.87;;;12.03;;
4122;SDS011;2075;51.062;6.920;2023-11-21T03:26:51;22.63;;;13.33;;
4122;SDS011;2075;51.062;6.920;2023-11-21T03:29:38;25.30;;;12.30;;
4122;SDS011;2075;51.062;6.920;2023-11-21T03:32:24;27.13;;;12.10;;
4122;SDS011;2075;51.062;6.920;2023-11-21T03:35:10;24.57;;;12.10;;
4122;SDS011;2075;51.062;6.920;2023-11-21T03:37:55;21.77;;;12.30;;
4122;SDS011;2075;51.062;6.920;2023-11-21T03:40:41;24.40;;;12.00;;
4122;SDS011;2075;51.062;6.920;2023-11-21T03:43:26;31.60;;;11.50;;
4122;SDS011;2075;51.062;6.920;2023-11-21T03:46:13;24.07;;;11.67;;
4122;SDS011;2075;51.062;6.920;2023-11-21T03:49:00;23.57;;;11.80;;
4122;SDS011;2075;51.062;6.920;2023-11-21T03:51:46;29.00;;;12.23;;
4122;SDS011;2075;51.062;6.920;2023-11-21T03:54:32;27.87;;;12.67;;
4122;SDS011;2075;51.062;6.920;2023-11-21T03:57:17;19.63;;;11.23;;
4122;SDS011;2075;51.062;6.920;2023-11-21T04:00:05;21.87;;;11.80;;
4122;SDS011;2075;51.062;6.920;2023-11-21T04:02:58;19.80;;;11.97;;
4122;SDS011;2075;51.062;6.920;2023-11-21T04:05:44;25.50;;;11.53;;
4122;SDS011;2075;51.062;6.920;2023-11-21T04:08:30;25.50;;;12.17;;
4122;SDS011;2075;51.062;6.920;2023-11-21T04:11:18;25.80;;;12.30;;
4122;SDS011;2075;51.062;6.920;2023-11-21T04:14:04;23.00;;;12.47;;
4122;SDS011;2075;51.062;6.920;2023-11-21T04:16:49;20.63;;;13.17;;
4122;SDS011;2075;51.062;6.920;2023-11-21T04:19:37;29.23;;;14.53;;
4122;SDS011;2075;51.062;6.920;2023-11-21T04:22:22;32.50;;;14.10;;
4122;SDS011;2075;51.062;6.920;2023-11-21T04:25:08;28.90;;;14.73;;
4122;SDS011;2075;51.062;6.920;2023-11-21T04:27:54;29.27;;;15.07;;
4122;SDS011;2075;51.062;6.920;2023-11-21T04:30:40;34.37;;;16.30;;
4122;SDS011;2075;51.062;6.920;2023-11-21T04:33:25;38.80;;;16.30;;
4122;SDS011;2075;51.062;6.920;2023-11-21T04:36:13;35.20;;;16.10;;
4122;SDS011;2075;51.062;6.920;2023-11-21T04:38:58;33.57;;;16.03;;
4122;SDS011;2075;51.062;6.920;2023-11-21T04:41:44;31.00;;;15.60;;
4122;SDS011;2075;51.062;6.920;2023-11-21T04:44:29;38.50;;;17.40;;
4122;SDS011;2075;51.062;6.920;2023-11-21T04:47:18;33.93;;;16.37;;
4122;SDS011;2075;51.062;6.920;2023-11-21T04:50:04;30.43;;;16.97;;
4122;SDS011;2075;51.062;6.920;2023-11-21T04:52:52;41.50;;;17.07;;
4122;SDS011;2075;51.062;6.920;2023-11-21T04:55:38;30.83;;;15.50;;
4122;SDS011;2075;51.062;6.920;2023-11-21T04:58:24;37.73;;;16.90;;
4122;SDS011;2075;51.062;6.920;2023-11-21T05:01:10;40.27;;;17.90;;
4122;SDS011;2075;51.062;6.920;2023-11-21T05:03:56;37.53;;;18.00;;
4122;SDS011;2075;51.062;6.920;2023-11-21T05:06:41;33.30;;;16.93;;
4122;SDS011;2075;51.062;6.920;2023-11-21T05:09:30;32.27;;;16.53;;
4122;SDS011;2075;51.062;6.920;2023-11-21T05:12:16;31.23;;;17.30;;
4122;SDS011;2075;51.062;6.920;2023-11-21T05:15:02;33.70;;;17.90;;
4122;SDS011;2075;51.062;6.920;2023-11-21T05:17:53;46.17;;;16.80;;
4122;SDS011;2075;51.062;6.920;2023-11-21T05:20:44;37.57;;;17.87;;
4122;SDS011;2075;51.062;6.920;2023-11-21T05:23:39;34.33;;;16.87;;
4122;SDS011;2075;51.062;6.920;2023-11-21T05:26:26;43.40;;;19.70;;
4122;SDS011;2075;51.062;6.920;2023-11-21T05:29:12;44.27;;;20.50;;
4122;SDS011;2075;51.062;6.920;2023-11-21T05:31:57;33.27;;;19.83;;
4122;SDS011;2075;51.062;6.920;2023-11-21T05:34:43;38.70;;;19.13;;
4122;SDS011;2075;51.062;6.920;2023-11-21T05:37:29;39.87;;;21.07;;
4122;SDS011;2075;51.062;6.920;2023-11-21T05:40:14;28.37;;;17.30;;
4122;SDS011;2075;51.062;6.920;2023-11-21T05:43:03;32.27;;;16.80;;
4122;SDS011;2075;51.062;6.920;2023-11-21T05:45:49;40.20;;;19.03;;
4122;SDS011;2075;51.062;6.920;2023-11-21T05:48:37;39.63;;;18.60;;
4122;SDS011;2075;51.062;6.920;2023-11-21T05:51:22;34.13;;;17.03;;
4122;SDS011;2075;51.062;6.920;2023-11-21T05:54:08;32.40;;;17.53;;
4122;SDS011;2075;51.062;6.920;2023-11-21T05:56:54;45.67;;;16.87;;
4122;SDS011;2075;51.062;6.920;2023-11-21T05:59:41;47.47;;;19.30;;
4122;SDS011;2075;51.062;6.920;2023-11-21T06:02:27;36.20;;;18.23;;
4122;SDS011;2075;51.062;6.920;2023-11-21T06:05:13;35.70;;;19.37;;
4122;SDS011;2075;51.062;6.920;2023-11-21T06:08:00;40.10;;;18.53;;
4122;SDS011;2075;51.062;6.920;2023-11-21T06:10:47;37.97;;;17.97;;
4122;SDS011;2075;51.062;6.920;2023-11-21T06:13:33;34.23;;;18.40;;
4122;SDS011;2075;51.062;6.920;2023-11-21T06:16:21;43.47;;;19.20;;
4122;SDS011;2075;51.062;6.920;2023-11-21T06:19:08;38.53;;;18.67;;
4122;SDS011;2075;51.062;6.920;2023-11-21T06:21:56;37.67;;;19.50;;
4122;SDS011;2075;51.062;6.920;2023-11-21T06:24:44;38.83;;;18.73;;
4122;SDS011;2075;51.062;6.920;2023-11-21T06:27:31;36.83;;;19.70;;
4122;SDS011;2075;51.062;6.920;2023-11-21T06:30:18;38.40;;;18.97;;
4122;SDS011;2075;51.062;6.920;2023-11-21T06:33:24;37.70;;;19.47;;
4122;SDS011;2075;51.062;6.920;2023-11-21T06:36:12;43.43;;;20.33;;
4122;SDS011;2075;51.062;6.920;2023-11-21T06:39:00;41.70;;;19.37;;
4122;SDS011;2075;51.062;6.920;2023-11-21T06:41:48;37.00;;;20.30;;
4122;SDS011;2075;51.062;6.920;2023-11-21T06:44:40;42.70;;;19.97;;
4122;SDS011;2075;51.062;6.920;2023-11-21T06:47:41;37.57;;;17.57;;
4122;SDS011;2075;51.062;6.920;2023-11-21T06:50:30;50.07;;;19.67;;
4122;SDS011;2075;51.062;6.920;2023-11-21T06:53:16;42.13;;;22.57;;
4122;SDS011;2075;51.062;6.920;2023-11-21T06:56:04;35.80;;;19.23;;
4122;SDS011;2075;51.062;6.920;2023-11-21T06:58:59;41.47;;;19.70;;
4122;SDS011;2075;51.062;6.920;2023-11-21T07:01:47;44.83;;;19.30;;
4122;SDS011;2075;51.062;6.920;2023-11-21T07:04:33;48.63;;;20.20;;
4122;SDS011;2075;51.062;6.920;2023-11-21T07:07:23;43.10;;;20.13;;
4122;SDS011;2075;51.062;6.920;2023-11-21T07:10:09;42.97;;;19.87;;
4122;SDS011;2075;51.062;6.920;2023-11-21T07:13:02;46.23;;;22.17;;
4122;SDS011;2075;51.062;6.920;2023-11-21T07:15:50;44.07;;;21.67;;
4122;SDS011;2075;51.062;6.920;2023-11-21T07:18:39;49.03;;;22.20;;
4122;SDS011;2075;51.062;6.920;2023-11-21T07:21:25;51.27;;;21.67;;
4122;SDS011;2075;51.062;6.920;2023-11-21T07:24:16;46.10;;;21.00;;
4122;SDS011;2075;51.062;6.920;2023-11-21T07:27:03;41.33;;;20.23;;
4122;SDS011;2075;51.062;6.920;2023-11-21T07:29:49;41.97;;;20.93;;
4122;SDS011;2075;51.062;6.920;2023-11-21T07:32:36;45.27;;;20.23;;
4122;SDS011;2075;51.062;6.920;2023-11-21T07:35:25;48.80;;;25.58;;
4122;SDS011;2075;51.062;6.920;2023-11-21T07:38:12;47.43;;;20.07;;
4122;SDS011;2075;51.062;6.920;2023-11-21T07:40:59;41.37;;;19.90;;
4122;SDS011;2075;51.062;6.920;2023-11-21T07:43:47;40.67;;;20.80;;
4122;SDS011;2075;51.062;6.920;2023-11-21T07:46:38;46.08;;;21.50;;
4122;SDS011;2075;51.062;6.920;2023-11-21T07:49:32;37.00;;;19.77;;
4122;SDS011;2075;51.062;6.920;2023-11-21T07:52:18;40.23;;;19.97;;
4122;SDS011;2075;51.062;6.920;2023-11-21T07:55:08;36.33;;;19.13;;
4122;SDS011;2075;51.062;6.920;2023-11-21T07:57:58;43.90;;;19.80;;
4122;SDS011;2075;51.062;6.920;2023-11-21T08:00:44;42.77;;;20.47;;
4122;SDS011;2075;51.062;6.920;2023-11-21T08:03:30;44.43;;;19.30;;
4122;SDS011;2075;51.062;6.920;2023-11-21T08:06:17;51.90;;;23.70;;
4122;SDS011;2075;51.062;6.920;2023-11-21T08:09:03;48.83;;;25.40;;
4122;SDS011;2075;51.062;6.920;2023-11-21T08:11:52;42.77;;;20.90;;
4122;SDS011;2075;51.062;6.920;2023-11-21T08:14:41;38.17;;;19.40;;
4122;SDS011;2075;51.062;6.920;2023-11-21T08:17:29;45.33;;;20.70;;
4122;SDS011;2075;51.062;6.920;2023-11-21T08:20:18;45.97;;;20.50;;
4122;SDS011;2075;51.062;6.920;2023-11-21T08:23:04;45.47;;;21.43;;
4122;SDS011;2075;51.062;6.920;2023-11-21T08:25:53;49.67;;;25.70;;
4122;SDS011;2075;51.062;6.920;2023-11-21T08:28:47;55.40;;;23.13;;
4122;SDS011;2075;51.062;6.920;2023-11-21T08:31:39;41.37;;;21.33;;
4122;SDS011;2075;51.062;6.920;2023-11-21T08:34:34;48.83;;;22.60;;
4122;SDS011;2075;51.062;6.920;2023-11-21T08:37:35;55.57;;;21.90;;
4122;SDS011;2075;51.062;6.920;2023-11-21T08:40:19;47.33;;;20.90;;
4122;SDS011;2075;51.062;6.920;2023-11-21T08:43:07;47.47;;;21.37;;
4122;SDS011;2075;51.062;6.920;2023-11-21T08:46:02;56.97;;;25.10;;
4122;SDS011;2075;51.062;6.920;2023-11-21T08:48:51;46.13;;;22.63;;
4122;SDS011;2075;51.062;6.920;2023-11-21T08:51:44;51.33;;;25.85;;
4122;SDS011;2075;51.062;6.920;2023-11-21T08:54:35;57.27;;;24.27;;
4122;SDS011;2075;51.062;6.920;2023-11-21T08:57:23;47.17;;;23.70;;
4122;SDS011;2075;51.062;6.920;2023-11-21T09:00:14;61.00;;;22.93;;
4122;SDS011;2075;51.062;6.920;2023-11-21T09:03:01;48.67;;;22.20;;
4122;SDS011;2075;51.062;6.920;2023-11-21T09:05:57;54.73;;;22.77;;
4122;SDS011;2075;51.062;6.920;2023-11-21T09:09:00;60.50;;;24.27;;
4122;SDS011;2075;51.062;6.920;2023-11-21T09:11:51;50.87;;;22.87;;
4122;SDS011;2075;51.062;6.920;2023-11-21T09:14:37;50.10;;;22.80;;
4122;SDS011;2075;51.062;6.920;2023-11-21T09:17:25;48.73;;;22.80;;
4122;SDS011;2075;51.062;6.920;2023-11-21T09:20:15;47.30;;;22.97;;
4122;SDS011;2075;51.062;6.920;2023-11-21T09:23:16;53.17;;;22.17;;
4122;SDS011;2075;51.062;6.920;2023-11-21T09:26:03;50.63;;;22.70;;
4122;SDS011;2075;51.062;6.920;2023-11-21T09:29:01;54.80;;;22.97;;
4122;SDS011;2075;51.062;6.920;2023-11-21T09:31:56;49.30;;;21.80;;
4122;SDS011;2075;51.062;6.920;2023-11-21T09:34:43;57.30;;;24.87;;
4122;SDS011;2075;51.062;6.920;2023-11-21T09:37:39;46.87;;;22.20;;
4122;SDS011;2075;51.062;6.920;2023-11-21T09:40:38;44.97;;;19.90;;
4122;SDS011;2075;51.062;6.920;2023-11-21T09:43:28;56.17;;;25.70;;
4122;SDS011;2075;51.062;6.920;2023-11-21T09:46:23;42.37;;;20.70;;
4122;SDS011;2075;51.062;6.920;2023-11-21T09:49:15;44.17;;;20.07;;
4122;SDS011;2075;51.062;6.920;2023-11-21T09:52:04;47.85;;;22.20;;
4122;SDS011;2075;51.062;6.920;2023-11-21T09:55:08;48.20;;;22.17;;
4122;SDS011;2075;51.062;6.920;2023-11-21T09:57:59;46.20;;;20.20;;
4122;SDS011;2075;51.062;6.920;2023-11-21T10:00:53;45.27;;;21.07;;
4122;SDS011;2075;51.062;6.920;2023-11-21T10:03:43;50.50;;;22.50;;
4122;SDS011;2075;51.062;6.920;2023-11-21T10:06:32;59.87;;;26.53;;
4122;SDS011;2075;51.062;6.920;2023-11-21T10:09:30;56.50;;;23.17;;
4122;SDS011;2075;51.062;6.920;2023-11-21T10:12:16;63.97;;;27.40;;
4122;SDS011;2075;51.062;6.920;2023-11-21T10:15:07;48.53;;;21.47;;
4122;SDS011;2075;51.062;6.920;2023-11-21T10:18:00;46.53;;;21.67;;
4122;SDS011;2075;51.062;6.920;2023-11-21T10:20:50;48.57;;;21.13;;
4122;SDS011;2075;51.062;6.920;2023-11-21T10:23:39;53.20;;;23.30;;
4122;SDS011;2075;51.062;6.920;2023-11-21T10:26:26;49.47;;;22.20;;
4122;SDS011;2075;51.062;6.920;2023-11-21T10:29:20;43.73;;;20.40;;
4122;SDS011;2075;51.062;6.920;2023-11-21T10:32:14;56.10;;;24.10;;
4122;SDS011;2075;51.062;6.920;2023-11-21T10:35:02;97.65;;;38.95;;
4122;SDS011;2075;51.062;6.920;2023-11-21T10:37:59;52.07;;;22.70;;
4122;SDS011;2075;51.062;6.920;2023-11-21T10:40:48;53.40;;;24.60;;
4122;SDS011;2075;51.062;6.920;2023-11-21T10:43:34;52.10;;;25.73;;
4122;SDS011;2075;51.062;6.920;2023-11-21T10:46:25;54.43;;;24.17;;
4122;SDS011;2075;51.062;6.920;2023-11-21T10:49:16;42.20;;;19.53;;
4122;SDS011;2075;51.062;6.920;2023-11-21T10:52:02;48.07;;;21.47;;
4122;SDS011;2075;51.062;6.920;2023-11-21T10:54:50;48.93;;;20.27;;
4122;SDS011;2075;51.062;6.920;2023-11-21T10:57:36;45.90;;;19.87;;
4122;SDS011;2075;51.062;6.920;2023-11-21T11:00:23;43.40;;;19.47;;
4122;SDS011;2075;51.062;6.920;2023-11-21T11:03:13;45.77;;;20.87;;
4122;SDS011;2075;51.062;6.920;2023-11-21T11:06:22;39.30;;;19.07;;
4122;SDS011;2075;51.062;6.920;2023-11-21T11:09:13;46.30;;;22.17;;
4122;SDS011;2075;51.062;6.920;2023-11-21T11:12:03;48.07;;;21.60;;
4122;SDS011;2075;51.062;6.920;2023-11-21T11:15:01;47.80;;;22.20;;
4122;SDS011;2075;51.062;6.920;2023-11-21T11:17:49;47.27;;;21.17;;
4122;SDS011;2075;51.062;6.920;2023-11-21T11:20:42;49.17;;;20.87;;
4122;SDS011;2075;51.062;6.920;2023-11-21T11:23:44;43.33;;;19.00;;
4122;SDS011;2075;51.062;6.920;2023-11-21T11:26:42;51.80;;;21.10;;
4122;SDS011;2075;51.062;6.920;2023-11-21T11:29:36;47.40;;;19.20;;
4122;SDS011;2075;51.062;6.920;2023-11-21T11:32:33;48.10;;;21.70;;
4122;SDS011;2075;51.062;6.920;2023-11-21T11:35:30;53.20;;;21.77;;
4122;SDS011;2075;51.062;6.920;2023-11-21T11:38:24;56.13;;;21.70;;
4122;SDS011;2075;51.062;6.920;2023-11-21T11:41:14;43.47;;;19.53;;
4122;SDS011;2075;51.062;6.920;2023-11-21T11:44:45;42.17;;;18.00;;
4122;SDS011;2075;51.062;6.920;2023-11-21T11:47:39;54.43;;;20.20;;
4122;SDS011;2075;51.062;6.920;2023-11-21T11:50:29;49.23;;;19.53;;
4122;SDS011;2075;51.062;6.920;2023-11-21T11:53:17;45.70;;;20.50;;
4122;SDS011;2075;51.062;6.920;2023-11-21T11:59:15;45.13;;;19.93;;
4122;SDS011;2075;51.062;6.920;2023-11-21T12:02:05;58.10;;;22.50;;
4122;SDS011;2075;51.062;6.920;2023-11-21T12:04:55;51.43;;;22.37;;
4122;SDS011;2075;51.062;6.920;2023-11-21T12:07:44;52.43;;;22.27;;
4122;SDS011;2075;51.062;6.920;2023-11-21T12:10:35;53.67;;;22.70;;
4122;SDS011;2075;51.062;6.920;2023-11-21T12:13:23;45.53;;;20.20;;
4122;SDS011;2075;51.062;6.920;2023-11-21T12:16:09;47.87;;;20.30;;
4122;SDS011;2075;51.062;6.920;2023-11-21T12:18:57;60.47;;;22.13;;
4122;SDS011;2075;51.062;6.920;2023-11-21T12:21:44;55.30;;;23.00;;
4122;SDS011;2075;51.062;6.920;2023-11-21T12:24:34;56.97;;;24.73;;
4122;SDS011;2075;51.062;6.920;2023-11-21T12:27:20;65.87;;;25.30;;
4122;SDS011;2075;51.062;6.920;2023-11-21T12:30:08;69.90;;;26.33;;
4122;SDS011;2075;51.062;6.920;2023-11-21T12:32:59;73.47;;;26.17;;
4122;SDS011;2075;51.062;6.920;2023-11-21T12:35:53;59.97;;;24.00;;
4122;SDS011;2075;51.062;6.920;2023-11-21T12:38:41;50.60;;;21.70;;
4122;SDS011;2075;51.062;6.920;2023-11-21T12:41:28;69.40;;;24.00;;
4122;SDS011;2075;51.062;6.920;2023-11-21T12:44:15;57.70;;;22.30;;
4122;SDS011;2075;51.062;6.920;2023-11-21T12:47:02;56.63;;;22.37;;
4122;SDS011;2075;51.062;6.920;2023-11-21T12:49:50;60.87;;;23.60;;
4122;SDS011;2075;51.062;6.920;2023-11-21T12:52:37;70.07;;;31.47;;
4122;SDS011;2075;51.062;6.920;2023-11-21T12:55:24;76.93;;;31.67;;
4122;SDS011;2075;51.062;6.920;2023-11-21T12:58:15;57.17;;;23.67;;
4122;SDS011;2075;51.062;6.920;2023-11-21T13:01:05;55.53;;;23.80;;
4122;SDS011;2075;51.062;6.920;2023-11-21T13:03:57;55.40;;;23.17;;
4122;SDS011;2075;51.062;6.920;2023-11-21T13:06:44;50.53;;;22.40;;
4122;SDS011;2075;51.062;6.920;2023-11-21T13:09:33;53.63;;;22.20;;
4122;SDS011;2075;51.062;6.920;2023-11-21T13:12:42;59.30;;;23.90;;
4122;SDS011;2075;51.062;6.920;2023-11-21T13:15:32;56.03;;;23.50;;
4122;SDS011;2075;51.062;6.920;2023-11-21T13:18:19;51.10;;;22.53;;
4122;SDS011;2075;51.062;6.920;2023-11-21T13:21:08;50.10;;;21.87;;
4122;SDS011;2075;51.062;6.920;2023-11-21T13:23:57;55.70;;;20.87;;
4122;SDS011;2075;51.062;6.920;2023-11-21T13:26:46;49.60;;;19.57;;
4122;SDS011;2075;51.062;6.920;2023-11-21T13:29:33;52.37;;;20.70;;
4122;SDS011;2075;51.062;6.920;2023-11-21T13:32:34;57.77;;;20.60;;
4122;SDS011;2075;51.062;6.920;2023-11-21T13:35:20;52.20;;;21.00;;
4122;SDS011;2075;51.062;6.920;2023-11-21T13:38:15;62.73;;;23.07;;
4122;SDS011;2075;51.062;6.920;2023-11-21T13:41:02;49.53;;;21.37;;
4122;SDS011;2075;51.062;6.920;2023-11-21T13:43:52;54.27;;;19.97;;
4122;SDS011;2075;51.062;6.920;2023-11-21T13:46:47;54.23;;;21.60;;
4122;SDS011;2075;51.062;6.920;2023-11-21T13:49:33;60.07;;;22.20;;
4122;SDS011;2075;51.062;6.920;2023-11-21T13:52:24;57.33;;;23.27;;
4122;SDS011;2075;51.062;6.920;2023-11-21T13:55:12;70.63;;;29.47;;
4122;SDS011;2075;51.062;6.920;2023-11-21T13:57:59;78.40;;;31.73;;
4122;SDS011;2075;51.062;6.920;2023-11-21T14:00:48;65.47;;;28.30;;
4122;SDS011;2075;51.062;6.920;2023-11-21T14:03:40;76.40;;;27.60;;
4122;SDS011;2075;51.062;6.920;2023-11-21T14:06:35;66.90;;;26.13;;
4122;SDS011;2075;51.062;6.920;2023-11-21T14:09:31;78.33;;;29.10;;
4122;SDS011;2075;51.062;6.920;2023-11-21T14:12:19;58.63;;;24.43;;
4122;SDS011;2075;51.062;6.920;2023-11-21T14:15:05;72.80;;;28.43;;
4122;SDS011;2075;51.062;6.920;2023-11-21T14:17:56;83.57;;;30.77;;
4122;SDS011;2075;51.062;6.920;2023-11-21T14:20:54;85.10;;;28.07;;
4122;SDS011;2075;51.062;6.920;2023-11-21T14:23:41;76.10;;;29.60;;
4122;SDS011;2075;51.062;6.920;2023-11-21T14:26:29;69.30;;;29.60;;
4122;SDS011;2075;51.062;6.920;2023-11-21T14:29:17;79.53;;;34.30;;
4122;SDS011;2075;51.062;6.920;2023-11-21T14:32:04;88.47;;;30.63;;
4122;SDS011;2075;51.062;6.920;2023-11-21T14:34:54;77.83;;;28.57;;
4122;SDS011;2075;51.062;6.920;2023-11-21T14:37:40;81.17;;;29.23;;
4122;SDS011;2075;51.062;6.920;2023-11-21T14:40:27;73.90;;;30.37;;
4122;SDS011;2075;51.062;6.920;2023-11-21T14:43:16;103.97;;;34.40;;
4122;SDS011;2075;51.062;6.920;2023-11-21T14:46:05;86.10;;;31.70;;
4122;SDS011;2075;51.062;6.920;2023-11-21T14:48:54;81.63;;;31.27;;
4122;SDS011;2075;51.062;6.920;2023-11-21T14:51:59;84.63;;;32.43;;
4122;SDS011;2075;51.062;6.920;2023-11-21T14:54:47;86.83;;;29.20;;
4122;SDS011;2075;51.062;6.920;2023-11-21T14:57:43;77.57;;;29.93;;
4122;SDS011;2075;51.062;6.920;2023-11-21T15:00:36;77.73;;;29.97;;
4122;SDS011;2075;51.062;6.920;2023-11-21T15:03:29;81.27;;;29.20;;
4122;SDS011;2075;51.062;6.920;2023-11-21T15:06:34;83.57;;;33.33;;
4122;SDS011;2075;51.062;6.920;2023-11-21T15:09:25;86.03;;;30.50;;
4122;SDS011;2075;51.062;6.920;2023-11-21T15:12:23;75.23;;;28.37;;
4122;SDS011;2075;51.062;6.920;2023-11-21T15:15:11;76.83;;;27.53;;
4122;SDS011;2075;51.062;6.920;2023-11-21T15:18:02;63.77;;;26.00;;
4122;SDS011;2075;51.062;6.920;2023-11-21T15:20:52;63.83;;;24.97;;
4122;SDS011;2075;51.062;6.920;2023-11-21T15:23:39;63.70;;;23.50;;
4122;SDS011;2075;51.062;6.920;2023-11-21T15:26:30;65.07;;;22.73;;
4122;SDS011;2075;51.062;6.920;2023-11-21T15:29:16;58.80;;;21.20;;
4122;SDS011;2075;51.062;6.920;2023-11-21T15:32:02;41.87;;;17.33;;
4122;SDS011;2075;51.062;6.920;2023-11-21T15:34:51;46.87;;;19.70;;
4122;SDS011;2075;51.062;6.920;2023-11-21T15:37:38;47.13;;;18.90;;
4122;SDS011;2075;51.062;6.920;2023-11-21T15:40:25;46.63;;;19.40;;
4122;SDS011;2075;51.062;6.920;2023-11-21T15:43:12;44.80;;;20.67;;
4122;SDS011;2075;51.062;6.920;2023-11-21T15:45:58;43.17;;;20.70;;
4122;SDS011;2075;51.062;6.920;2023-11-21T15:48:45;34.20;;;17.53;;
4122;SDS011;2075;51.062;6.920;2023-11-21T15:51:35;36.90;;;16.40;;
4122;SDS011;2075;51.062;6.920;2023-11-21T15:54:21;30.10;;;16.10;;
4122;SDS011;2075;51.062;6.920;2023-11-21T15:57:09;34.90;;;16.93;;
4122;SDS011;2075;51.062;6.920;2023-11-21T15:59:57;27.33;;;13.80;;
4122;SDS011;2075;51.062;6.920;2023-11-21T16:02:43;31.73;;;14.30;;
4122;SDS011;2075;51.062;6.920;2023-11-21T16:05:29;24.60;;;13.60;;
4122;SDS011;2075;51.062;6.920;2023-11-21T16:08:15;28.23;;;13.87;;
4122;SDS011;2075;51.062;6.920;2023-11-21T16:11:02;21.07;;;12.73;;
4122;SDS011;2075;51.062;6.920;2023-11-21T16:13:48;20.00;;;11.87;;
4122;SDS011;2075;51.062;6.920;2023-11-21T16:16:37;22.17;;;11.70;;
4122;SDS011;2075;51.062;6.920;2023-11-21T16:19:23;20.60;;;12.73;;
4122;SDS011;2075;51.062;6.920;2023-11-21T16:22:09;22.23;;;12.23;;
4122;SDS011;2075;51.062;6.920;2023-11-21T16:24:56;18.30;;;11.33;;
4122;SDS011;2075;51.062;6.920;2023-11-21T16:27:42;20.17;;;11.97;;
4122;SDS011;2075;51.062;6.920;2023-11-21T16:30:31;20.50;;;12.03;;
4122;SDS011;2075;51.062;6.920;2023-11-21T16:33:20;22.50;;;12.70;;
4122;SDS011;2075;51.062;6.920;2023-11-21T16:36:06;22.63;;;13.07;;
4122;SDS011;2075;51.062;6.920;2023-11-21T16:38:53;20.00;;;10.93;;
4122;SDS011;2075;51.062;6.920;2023-11-21T16:41:40;14.57;;;9.57;;
4122;SDS011;2075;51.062;6.920;2023-11-21T16:44:28;19.50;;;10.40;;
4122;SDS011;2075;51.062;6.920;2023-11-21T16:47:16;19.77;;;11.20;;
4122;SDS011;2075;51.062;6.920;2023-11-21T16:50:07;14.67;;;9.30;;
4122;SDS011;2075;51.062;6.920;2023-11-21T16:52:54;15.80;;;9.50;;
4122;SDS011;2075;51.062;6.920;2023-11-21T16:55:40;14.57;;;9.73;;
4122;SDS011;2075;51.062;6.920;2023-11-21T16:58:29;17.10;;;10.20;;
4122;SDS011;2075;51.062;6.920;2023-11-21T17:01:17;17.10;;;10.03;;